Terminal Aerodrome Forecast
Issued by NWS

Home | Current Version | Previous Version | Text Only | Print | Product List | Glossary On
Versions: 1 2 3 4 5 6 7 8 9 10 11 12 13 14 15 16 17 18 19 20
000
FTUS43 KGRB 290520
TAFATW
TAF
KATW 290520Z 2906/3006 15008KT P6SM BKN150
     FM291200 18008KT P6SM VCSH SCT050 OVC080
      TEMPO 2912/2916 6SM -SHRA BKN040
     FM291600 21014G24KT P6SM VCSH SCT035 BKN080
      TEMPO 2923/3003 3SM TSRA BKN025CB
     FM300300 30006KT 5SM -SHRA BR BKN015 OVC035=

USA.gov is the U.S. government's official web portal to all federal, state and local government web resources and services.